createdAt,value
2023-03-10T00:01:33.976Z,47.90
2023-03-10T00:04:03.032Z,41.45
2023-03-10T00:06:35.350Z,34.75
2023-03-10T00:09:02.223Z,35.72
2023-03-10T00:11:29.107Z,35.60
2023-03-10T00:14:03.861Z,46.70
2023-03-10T00:16:38.144Z,31.95
2023-03-10T00:19:14.992Z,25.60
2023-03-10T00:21:42.156Z,27.50
2023-03-10T00:24:14.030Z,31.15
2023-03-10T00:26:40.847Z,29.35
2023-03-10T00:29:07.522Z,29.40
2023-03-10T00:31:34.196Z,30.20
2023-03-10T00:34:00.769Z,25.65
2023-03-10T00:36:36.599Z,28.38
2023-03-10T00:39:03.540Z,28.55
2023-03-10T00:41:31.893Z,26.90
2023-03-10T00:44:03.167Z,26.42
2023-03-10T00:46:30.441Z,26.25
2023-03-10T00:49:00.218Z,24.92
2023-03-10T00:51:31.246Z,21.52
2023-03-10T00:53:59.464Z,15.68
2023-03-10T00:56:29.539Z,13.10
2023-03-10T00:59:02.107Z,15.73
2023-03-10T01:01:33.230Z,13.55
2023-03-10T01:04:02.103Z,19.98
2023-03-10T01:06:32.347Z,14.70
2023-03-10T01:08:59.075Z,14.82
2023-03-10T01:11:32.198Z,17.80
2023-03-10T01:14:00.627Z,15.70
2023-03-10T01:16:31.394Z,15.73
2023-03-10T01:19:00.530Z,15.77
2023-03-10T01:21:32.995Z,15.35
2023-03-10T01:24:00.494Z,11.30
2023-03-10T01:26:30.830Z,7.68
2023-03-10T01:29:00.517Z,10.73
2023-03-10T01:31:30.350Z,9.25
2023-03-10T01:34:00.264Z,6.45
2023-03-10T01:36:37.386Z,8.98
2023-03-10T01:41:30.623Z,7.10
2023-03-10T01:44:02.140Z,10.70
2023-03-10T01:46:47.488Z,8.52
2023-03-10T01:49:40.209Z,10.35
2023-03-10T01:52:13.670Z,5.95
2023-03-10T01:54:49.085Z,6.22
2023-03-10T01:57:18.987Z,9.63
2023-03-10T01:59:49.536Z,9.10
2023-03-10T02:02:33.255Z,9.13
2023-03-10T02:05:01.967Z,6.15
2023-03-10T02:07:38.899Z,6.82
2023-03-10T02:10:07.131Z,5.93
2023-03-10T02:12:33.707Z,9.13
2023-03-10T02:15:00.374Z,5.30
2023-03-10T02:17:29.947Z,11.10
2023-03-10T02:20:14.291Z,6.10
2023-03-10T02:22:42.616Z,5.60
2023-03-10T02:25:29.355Z,5.88
2023-03-10T02:28:00.693Z,6.57
2023-03-10T02:30:31.871Z,4.55
2023-03-10T02:33:01.871Z,7.95
2023-03-10T02:35:28.885Z,8.13
2023-03-10T02:38:03.881Z,3.95
2023-03-10T02:40:34.584Z,6.32
2023-03-10T02:43:15.555Z,5.82
2023-03-10T02:45:45.814Z,9.05
2023-03-10T02:48:14.787Z,7.63
2023-03-10T02:50:46.763Z,10.20
2023-03-10T02:53:16.508Z,11.65
2023-03-10T02:55:43.226Z,3.50
2023-03-10T02:58:11.370Z,4.07
2023-03-10T03:00:39.959Z,5.13
2023-03-10T03:03:09.186Z,7.57
2023-03-10T03:05:36.469Z,5.78
2023-03-10T03:08:03.908Z,3.88
2023-03-10T03:10:30.607Z,6.22
2023-03-10T03:13:00.369Z,5.22
2023-03-10T03:15:28.767Z,3.15
2023-03-10T03:17:59.593Z,6.22
2023-03-10T03:20:29.004Z,5.05
2023-03-10T03:22:59.398Z,6.90
2023-03-10T03:25:29.411Z,4.05
2023-03-10T03:28:00.690Z,3.15
2023-03-10T03:30:29.047Z,7.10
2023-03-10T03:33:01.140Z,4.97
2023-03-10T03:35:33.678Z,5.18
2023-03-10T03:38:01.619Z,4.05
2023-03-10T03:40:31.637Z,5.82
2023-03-10T03:43:01.996Z,6.40
2023-03-10T03:45:31.790Z,5.38
2023-03-10T03:47:59.542Z,3.45
2023-03-10T03:50:29.934Z,7.13
2023-03-10T03:53:02.119Z,4.10
2023-03-10T03:55:29.756Z,5.43
2023-03-10T03:57:58.593Z,2.90
2023-03-10T04:00:32.805Z,5.25
2023-03-10T04:03:04.052Z,7.80
2023-03-10T04:05:31.676Z,5.32
2023-03-10T04:08:00.385Z,5.13
2023-03-10T04:10:28.736Z,4.13
2023-03-10T04:12:57.570Z,8.32
2023-03-10T04:15:29.598Z,4.57
2023-03-10T04:17:59.068Z,4.80
2023-03-10T04:20:32.272Z,9.23
2023-03-10T04:22:58.937Z,6.57
2023-03-10T04:25:30.734Z,4.20
2023-03-10T04:27:59.300Z,2.67
2023-03-10T04:30:28.731Z,4.50
2023-03-10T04:32:59.063Z,6.35
2023-03-10T04:35:30.664Z,3.95
2023-03-10T04:37:58.729Z,3.55
2023-03-10T04:40:31.733Z,5.65
2023-03-10T04:43:01.925Z,4.30
2023-03-10T04:45:29.780Z,4.90
2023-03-10T04:47:58.477Z,3.63
2023-03-10T04:50:29.971Z,3.40
2023-03-10T04:52:58.383Z,5.03
2023-03-10T04:55:28.350Z,5.47
2023-03-10T04:58:01.883Z,5.45
2023-03-10T05:00:28.636Z,2.85
2023-03-10T05:03:01.242Z,4.38
2023-03-10T05:05:35.826Z,5.18
2023-03-10T05:08:07.625Z,3.60
2023-03-10T05:13:03.495Z,2.78
2023-03-10T05:15:33.692Z,6.45
2023-03-10T05:18:00.607Z,4.00
2023-03-10T05:20:30.044Z,5.07
2023-03-10T05:23:00.825Z,3.83
2023-03-10T05:25:30.306Z,3.80
2023-03-10T05:28:00.354Z,5.20
2023-03-10T05:30:28.947Z,5.68
2023-03-10T05:32:59.434Z,6.18
2023-03-10T05:35:31.858Z,3.15
2023-03-10T05:38:00.101Z,3.22
2023-03-10T05:40:30.167Z,3.70
2023-03-10T05:42:58.559Z,4.03
2023-03-10T05:45:34.485Z,5.60
2023-03-10T05:48:04.139Z,4.95
2023-03-10T05:50:30.797Z,3.83
2023-03-10T05:53:00.419Z,4.10
2023-03-10T05:55:29.956Z,3.75
2023-03-10T05:58:00.308Z,4.60
2023-03-10T06:00:28.859Z,7.57
2023-03-10T06:03:00.143Z,2.72
2023-03-10T06:05:32.142Z,2.40
2023-03-10T06:08:00.431Z,4.47
2023-03-10T06:10:30.142Z,6.40
2023-03-10T06:12:59.801Z,4.32
2023-03-10T06:15:32.381Z,3.05
2023-03-10T06:18:00.914Z,3.17
2023-03-10T06:20:29.424Z,2.90
2023-03-10T06:23:04.844Z,3.20
2023-03-10T06:25:31.425Z,3.45
2023-03-10T06:28:01.469Z,2.70
2023-03-10T06:30:31.332Z,4.78
2023-03-10T06:33:01.570Z,2.92
2023-03-10T06:35:31.895Z,3.30
2023-03-10T06:37:58.791Z,1.95
2023-03-10T06:40:29.100Z,3.15
2023-03-10T06:43:01.667Z,3.40
2023-03-10T06:45:31.229Z,1.92
2023-03-10T06:47:59.738Z,1.75
2023-03-10T06:50:34.244Z,2.45
2023-03-10T06:53:01.043Z,2.17
2023-03-10T06:55:31.939Z,2.08
2023-03-10T06:57:58.525Z,1.90
2023-03-10T07:00:30.252Z,5.28
2023-03-10T07:03:00.122Z,3.10
2023-03-10T07:05:28.458Z,3.47
2023-03-10T07:07:59.942Z,3.35
2023-03-10T07:10:31.331Z,2.72
2023-03-10T07:13:02.359Z,2.63
2023-03-10T07:15:29.671Z,2.10
2023-03-10T07:17:59.367Z,2.60
2023-03-10T07:20:29.744Z,2.42
2023-03-10T07:25:28.649Z,3.45
2023-03-10T07:28:01.707Z,2.28
2023-03-10T07:30:31.574Z,2.33
2023-03-10T07:33:01.012Z,2.15
2023-03-10T07:35:29.277Z,3.40
2023-03-10T07:38:02.090Z,3.25
2023-03-10T07:40:29.188Z,2.42
2023-03-10T07:43:00.840Z,2.53
2023-03-10T07:45:32.656Z,2.58
2023-03-10T07:48:02.156Z,2.78
2023-03-10T07:50:29.081Z,4.13
2023-03-10T07:53:01.735Z,1.73
2023-03-10T07:55:37.799Z,2.83
2023-03-10T07:58:07.662Z,1.48
2023-03-10T08:00:35.912Z,1.40
2023-03-10T08:03:02.480Z,1.73
2023-03-10T08:05:34.848Z,1.58
2023-03-10T08:08:01.581Z,1.63
2023-03-10T08:10:31.523Z,1.35
2023-03-10T08:13:03.149Z,5.40
2023-03-10T08:15:30.461Z,2.30
2023-03-10T08:18:01.148Z,1.25
2023-03-10T08:20:29.712Z,2.65
2023-03-10T08:22:59.384Z,1.67
2023-03-10T08:25:28.536Z,1.63
2023-03-10T08:28:01.372Z,2.10
2023-03-10T08:30:32.468Z,1.10
2023-03-10T08:33:02.072Z,1.13
2023-03-10T08:35:30.361Z,0.90
2023-03-10T08:38:05.194Z,1.85
2023-03-10T08:40:34.678Z,2.05
2023-03-10T08:43:01.329Z,2.53
2023-03-10T08:45:30.390Z,4.28
2023-03-10T08:47:59.898Z,1.52
2023-03-10T08:50:31.223Z,1.10
2023-03-10T08:53:00.994Z,2.00
2023-03-10T08:55:29.637Z,1.42
2023-03-10T08:58:02.495Z,1.40
2023-03-10T09:00:37.502Z,1.60
2023-03-10T09:03:04.250Z,1.42
2023-03-10T09:05:32.264Z,2.60
2023-03-10T09:07:58.833Z,3.67
2023-03-10T09:10:31.377Z,2.17
2023-03-10T09:13:13.022Z,1.92
2023-03-10T09:18:11.895Z,3.00
2023-03-10T09:20:45.755Z,3.03
2023-03-10T09:23:15.763Z,2.13
2023-03-10T09:25:45.065Z,2.67
2023-03-10T09:28:17.420Z,3.95
2023-03-10T09:30:45.822Z,2.13
2023-03-10T09:33:16.317Z,2.67
2023-03-10T09:36:05.937Z,2.42
2023-03-10T09:38:34.065Z,3.28
2023-03-10T09:41:08.953Z,2.92
2023-03-10T09:43:39.224Z,2.38
2023-03-10T09:46:15.049Z,1.92
2023-03-10T09:48:50.342Z,1.75
2023-03-10T09:51:30.358Z,2.65
2023-03-10T09:54:11.262Z,2.28
2023-03-10T09:56:38.265Z,1.40
2023-03-10T09:59:08.844Z,1.40
2023-03-10T10:01:35.805Z,1.35
2023-03-10T10:04:15.664Z,4.63
2023-03-10T10:06:46.266Z,4.50
2023-03-10T10:09:31.952Z,1.75
2023-03-10T10:12:11.682Z,5.82
2023-03-10T10:14:56.604Z,2.13
2023-03-10T10:17:53.713Z,2.28
2023-03-10T10:20:34.950Z,2.40
2023-03-10T10:23:20.967Z,6.20
2023-03-10T10:25:50.445Z,6.88
2023-03-10T10:28:28.282Z,1.90
2023-03-10T10:31:14.210Z,1.85
2023-03-10T10:34:03.126Z,3.63
2023-03-10T10:36:32.155Z,3.03
2023-03-10T10:39:00.882Z,5.20
2023-03-10T10:41:34.071Z,2.33
2023-03-10T10:44:14.399Z,2.70
2023-03-10T10:47:00.994Z,2.45
2023-03-10T10:49:30.163Z,1.65
2023-03-10T10:52:01.178Z,2.75
2023-03-10T10:54:37.825Z,1.25
2023-03-10T10:57:18.842Z,3.65
2023-03-10T10:59:45.925Z,1.23
2023-03-10T11:02:32.457Z,2.97
2023-03-10T11:05:15.782Z,2.38
2023-03-10T11:07:42.847Z,2.60
2023-03-10T11:10:15.963Z,1.88
2023-03-10T11:13:07.259Z,1.05
2023-03-10T11:15:39.638Z,2.20
2023-03-10T11:18:14.411Z,4.15
2023-03-10T11:20:51.841Z,1.58
2023-03-10T11:23:29.650Z,2.17
2023-03-10T11:26:10.906Z,1.38
2023-03-10T11:29:00.301Z,1.98
2023-03-10T11:31:41.321Z,3.03
2023-03-10T11:34:43.579Z,3.22
2023-03-10T11:37:20.784Z,2.28
2023-03-10T11:40:05.982Z,3.03
2023-03-10T11:42:39.008Z,2.28
2023-03-10T11:45:31.638Z,2.03
2023-03-10T11:50:42.304Z,2.85
2023-03-10T11:53:16.290Z,1.55
2023-03-10T11:55:44.442Z,2.42
2023-03-10T11:58:29.805Z,3.95
2023-03-10T12:01:00.692Z,1.38
2023-03-10T12:03:42.299Z,1.70
2023-03-10T12:06:14.802Z,1.80
2023-03-10T12:08:42.624Z,1.85
2023-03-10T12:11:16.848Z,2.75
2023-03-10T12:13:47.884Z,2.20
2023-03-10T12:16:19.014Z,4.28
2023-03-10T12:18:46.226Z,2.72
2023-03-10T12:21:21.995Z,1.95
2023-03-10T12:24:44.852Z,1.90
2023-03-10T12:27:11.519Z,2.15
2023-03-10T12:29:43.239Z,1.48
2023-03-10T12:32:41.717Z,1.45
2023-03-10T12:35:59.326Z,1.52
2023-03-10T12:38:41.743Z,4.22
2023-03-10T12:41:32.794Z,2.42
2023-03-10T12:44:01.479Z,2.33
2023-03-10T12:46:40.723Z,2.88
2023-03-10T12:49:46.188Z,2.22
2023-03-10T12:52:30.315Z,2.00
2023-03-10T12:55:17.453Z,1.98
2023-03-10T12:58:02.448Z,1.73
2023-03-10T13:00:38.349Z,2.15
2023-03-10T13:03:16.008Z,2.70
2023-03-10T13:06:06.178Z,2.47
2023-03-10T13:09:02.678Z,1.60
2023-03-10T13:11:36.486Z,2.35
2023-03-10T13:14:10.788Z,1.33
2023-03-10T13:16:39.955Z,2.70
2023-03-10T13:19:07.120Z,2.20
2023-03-10T13:21:36.355Z,2.40
2023-03-10T13:24:22.020Z,2.38
2023-03-10T13:26:48.596Z,3.80
2023-03-10T13:29:19.564Z,1.52
2023-03-10T13:32:00.538Z,1.85
2023-03-10T13:34:36.213Z,2.20
2023-03-10T13:37:04.932Z,2.45
2023-03-10T13:39:31.871Z,1.85
2023-03-10T13:42:02.110Z,2.85
2023-03-10T13:44:34.557Z,2.67
2023-03-10T13:47:04.332Z,2.70
2023-03-10T13:49:33.983Z,1.55
2023-03-10T13:52:03.458Z,3.42
2023-03-10T13:54:32.053Z,1.75
2023-03-10T13:57:04.628Z,3.40
2023-03-10T13:59:34.427Z,1.92
2023-03-10T14:02:01.943Z,2.95
2023-03-10T14:04:43.703Z,1.52
2023-03-10T14:07:11.815Z,1.30
2023-03-10T14:09:38.615Z,1.48
2023-03-10T14:12:05.482Z,1.77
2023-03-10T14:14:34.568Z,2.00
2023-03-10T14:17:02.696Z,2.42
2023-03-10T14:19:46.774Z,1.67
2023-03-10T14:22:28.045Z,2.78
2023-03-10T14:25:11.525Z,1.40
2023-03-10T14:27:42.189Z,1.60
2023-03-10T14:30:31.595Z,1.45
2023-03-10T14:33:01.740Z,1.88
2023-03-10T14:35:30.382Z,2.35
2023-03-10T14:37:58.810Z,2.08
2023-03-10T14:40:30.258Z,2.75
2023-03-10T14:43:17.216Z,2.78
2023-03-10T14:46:13.456Z,2.45
2023-03-10T14:49:14.001Z,1.67
2023-03-10T14:51:59.761Z,1.35
2023-03-10T14:54:38.731Z,2.45
2023-03-10T14:57:29.215Z,3.83
2023-03-10T15:00:04.554Z,1.90
2023-03-10T15:02:47.613Z,1.33
2023-03-10T15:05:20.451Z,1.30
2023-03-10T15:08:10.699Z,1.98
2023-03-10T15:10:49.322Z,0.82
2023-03-10T15:13:17.244Z,1.55
2023-03-10T15:15:45.565Z,2.28
2023-03-10T15:18:15.469Z,2.25
2023-03-10T15:20:42.203Z,2.50
2023-03-10T15:23:09.220Z,2.55
2023-03-10T15:25:36.261Z,1.38
2023-03-10T15:28:03.758Z,3.38
2023-03-10T15:30:32.600Z,2.05
2023-03-10T15:32:59.352Z,3.28
2023-03-10T15:35:30.166Z,2.30
2023-03-10T15:37:58.825Z,2.78
2023-03-10T15:40:32.678Z,1.42
2023-03-10T15:42:59.603Z,1.48
2023-03-10T15:45:30.880Z,1.70
2023-03-10T15:48:00.498Z,2.40
2023-03-10T15:50:30.948Z,1.33
2023-03-10T15:53:01.060Z,2.70
2023-03-10T15:58:02.233Z,2.55
2023-03-10T16:00:31.421Z,2.80
2023-03-10T16:03:00.804Z,2.42
2023-03-10T16:05:32.370Z,1.23
2023-03-10T16:08:01.775Z,2.85
2023-03-10T16:10:31.989Z,2.33
2023-03-10T16:13:00.816Z,4.57
2023-03-10T16:15:31.438Z,1.08
2023-03-10T16:18:03.056Z,1.70
2023-03-10T16:20:29.620Z,2.05
2023-03-10T16:23:02.560Z,1.73
2023-03-10T16:25:32.271Z,2.83
2023-03-10T16:28:01.449Z,3.00
2023-03-10T16:30:30.363Z,2.10
2023-03-10T16:32:59.994Z,3.35
2023-03-10T16:35:30.442Z,1.60
2023-03-10T16:38:02.085Z,1.55
2023-03-10T16:40:44.622Z,3.03
2023-03-10T16:43:11.529Z,2.00
2023-03-10T16:45:39.798Z,2.72
2023-03-10T16:48:06.857Z,1.92
2023-03-10T16:50:33.743Z,3.72
2023-03-10T16:53:03.718Z,4.22
2023-03-10T16:55:30.814Z,2.10
2023-03-10T16:58:05.589Z,1.67
2023-03-10T17:00:36.885Z,5.25
2023-03-10T17:03:06.393Z,3.40
2023-03-10T17:05:35.683Z,1.98
2023-03-10T17:08:03.985Z,1.77
2023-03-10T17:10:31.007Z,2.10
2023-03-10T17:13:02.340Z,2.17
2023-03-10T17:15:29.794Z,2.42
2023-03-10T17:17:59.791Z,1.88
2023-03-10T17:20:32.156Z,1.70
2023-03-10T17:23:05.126Z,1.83
2023-03-10T17:25:35.800Z,4.55
2023-03-10T17:28:02.566Z,2.38
2023-03-10T17:30:29.123Z,1.83
2023-03-10T17:33:01.325Z,1.15
2023-03-10T17:35:34.628Z,2.35
2023-03-10T17:38:01.284Z,3.08
2023-03-10T17:40:30.874Z,2.55
2023-03-10T17:43:08.387Z,1.75
2023-03-10T17:45:41.926Z,2.13
2023-03-10T17:48:08.499Z,2.97
2023-03-10T17:50:35.104Z,2.17
2023-03-10T17:53:01.599Z,2.22
2023-03-10T17:55:30.180Z,2.35
2023-03-10T17:58:00.109Z,3.28
2023-03-10T18:00:29.700Z,3.50
2023-03-10T18:03:00.280Z,2.08
2023-03-10T18:05:29.991Z,2.55
2023-03-10T18:07:59.636Z,2.42
2023-03-10T18:10:29.204Z,3.33
2023-03-10T18:13:03.603Z,4.18
2023-03-10T18:15:32.109Z,2.42
2023-03-10T18:17:59.076Z,2.83
2023-03-10T18:20:31.881Z,2.40
2023-03-10T18:23:01.476Z,2.72
2023-03-10T18:25:34.031Z,3.45
2023-03-10T18:28:00.749Z,2.13
2023-03-10T18:30:31.288Z,3.47
2023-03-10T18:32:59.976Z,4.45
2023-03-10T18:35:32.623Z,3.08
2023-03-10T18:37:59.529Z,2.58
2023-03-10T18:40:28.945Z,4.40
2023-03-10T18:43:01.387Z,2.17
2023-03-10T18:45:30.283Z,1.60
2023-03-10T18:48:04.901Z,3.70
2023-03-10T18:50:31.749Z,2.95
2023-03-10T18:53:01.232Z,3.30
2023-03-10T18:55:35.222Z,2.63
2023-03-10T18:58:08.410Z,6.35
2023-03-10T19:00:36.804Z,3.80
2023-03-10T19:03:03.466Z,2.55
2023-03-10T19:05:30.253Z,1.60
2023-03-10T19:07:59.959Z,4.32
2023-03-10T19:10:32.531Z,2.45
2023-03-10T19:12:59.194Z,2.45
2023-03-10T19:15:28.305Z,3.53
2023-03-10T19:17:59.130Z,4.40
2023-03-10T19:20:37.806Z,1.73
2023-03-10T19:23:04.532Z,1.48
2023-03-10T19:25:31.158Z,1.58
2023-03-10T19:28:00.853Z,1.30
2023-03-10T19:30:29.576Z,1.77
2023-03-10T19:33:06.824Z,1.63
2023-03-10T19:35:33.536Z,1.35
2023-03-10T19:38:00.250Z,1.98
2023-03-10T19:40:33.029Z,1.05
2023-03-10T19:43:02.976Z,1.67
2023-03-10T19:45:31.033Z,2.05
2023-03-10T19:48:02.581Z,2.40
2023-03-10T19:50:31.811Z,1.42
2023-03-10T19:53:08.897Z,1.20
2023-03-10T19:55:37.534Z,2.08
2023-03-10T19:58:07.701Z,2.38
2023-03-10T20:00:34.512Z,1.85
2023-03-10T20:03:05.109Z,1.95
2023-03-10T20:05:41.375Z,2.30
2023-03-10T20:08:08.861Z,1.85
2023-03-10T20:10:35.504Z,1.38
2023-03-10T20:13:02.228Z,1.77
2023-03-10T20:15:28.913Z,0.95
2023-03-10T20:18:01.921Z,1.20
2023-03-10T20:20:30.859Z,2.30
2023-03-10T20:22:59.463Z,1.10
2023-03-10T20:25:29.888Z,1.38
2023-03-10T20:30:29.970Z,1.25
2023-03-10T20:33:02.183Z,1.38
2023-03-10T20:35:31.478Z,0.93
2023-03-10T20:38:01.231Z,1.33
2023-03-10T20:40:29.544Z,2.22
2023-03-10T20:42:58.960Z,1.55
2023-03-10T20:45:31.692Z,0.90
2023-03-10T20:48:01.794Z,1.65
2023-03-10T20:50:35.922Z,1.50
2023-03-10T20:53:03.251Z,1.42
2023-03-10T20:55:31.357Z,2.63
2023-03-10T20:58:01.677Z,1.52
2023-03-10T21:02:59.302Z,1.55
2023-03-10T21:05:30.029Z,1.50
2023-03-10T21:08:02.653Z,1.15
2023-03-10T21:10:29.225Z,1.45
2023-03-10T21:13:01.842Z,1.45
2023-03-10T21:15:30.077Z,3.28
2023-03-10T21:18:09.045Z,1.35
2023-03-10T21:20:38.035Z,1.67
2023-03-10T21:23:06.218Z,3.28
2023-03-10T21:25:32.779Z,2.00
2023-03-10T21:27:59.349Z,2.00
2023-03-10T21:30:32.046Z,1.33
2023-03-10T21:33:00.784Z,1.25
2023-03-10T21:35:32.601Z,2.42
2023-03-10T21:38:00.766Z,2.33
2023-03-10T21:40:30.280Z,1.50
2023-03-10T21:43:02.999Z,1.35
2023-03-10T21:45:29.721Z,2.38
2023-03-10T21:48:02.336Z,1.38
2023-03-10T21:50:28.905Z,2.53
2023-03-10T21:53:03.144Z,2.78
2023-03-10T21:55:36.985Z,3.30
2023-03-10T21:58:05.874Z,4.05
2023-03-10T22:00:33.095Z,3.05
2023-03-10T22:02:59.787Z,1.35
2023-03-10T22:05:29.429Z,2.22
2023-03-10T22:07:59.168Z,5.00
2023-03-10T22:10:31.154Z,2.42
2023-03-10T22:13:00.939Z,1.67
2023-03-10T22:15:32.040Z,1.75
2023-03-10T22:18:01.779Z,1.40
2023-03-10T22:20:31.587Z,1.55
2023-03-10T22:23:01.170Z,1.88
2023-03-10T22:25:29.239Z,1.48
2023-03-10T22:27:58.574Z,1.63
2023-03-10T22:30:31.237Z,1.40
2023-03-10T22:32:59.770Z,3.15
2023-03-10T22:35:32.334Z,2.97
2023-03-10T22:37:59.188Z,1.65
2023-03-10T22:40:33.750Z,2.92
2023-03-10T22:43:00.357Z,1.55
2023-03-10T22:45:31.814Z,2.75
2023-03-10T22:48:02.540Z,4.03
2023-03-10T22:50:31.790Z,1.90
2023-03-10T22:53:00.805Z,1.50
2023-03-10T22:55:30.318Z,1.65
2023-03-10T22:58:01.540Z,2.10
2023-03-10T23:00:30.430Z,1.90
2023-03-10T23:02:59.353Z,1.92
2023-03-10T23:05:32.038Z,4.60
2023-03-10T23:08:00.367Z,2.42
2023-03-10T23:10:36.050Z,2.75
2023-03-10T23:13:07.685Z,3.85
2023-03-10T23:15:37.395Z,2.10
2023-03-10T23:18:05.788Z,1.48
2023-03-10T23:20:34.476Z,2.83
2023-03-10T23:23:06.051Z,3.95
2023-03-10T23:25:39.776Z,1.42
2023-03-10T23:28:10.104Z,1.52
2023-03-10T23:30:43.190Z,1.95
2023-03-10T23:33:12.116Z,3.38
2023-03-10T23:35:45.802Z,2.70
2023-03-10T23:38:14.732Z,1.58
2023-03-10T23:40:45.932Z,1.27
2023-03-10T23:43:35.536Z,3.08
2023-03-10T23:46:37.171Z,1.90
2023-03-10T23:49:44.523Z,3.83
2023-03-10T23:52:35.683Z,2.58
2023-03-10T23:55:07.283Z,2.90
2023-03-10T23:57:37.056Z,3.10
